sensor_id;sensor_type;location;lat;lon;timestamp;pressure;altitude;pressure_sealevel;temperature;humidity
54882;BME280;40775;51.448;4.742;2023-04-29T00:01:24;101499.69;;;11.45;100.00
54882;BME280;40775;51.448;4.742;2023-04-29T00:03:52;101498.91;;;11.16;100.00
54882;BME280;40775;51.448;4.742;2023-04-29T00:06:20;101507.72;;;11.18;100.00
54882;BME280;40775;51.448;4.742;2023-04-29T00:08:47;101509.09;;;11.35;100.00
54882;BME280;40775;51.448;4.742;2023-04-29T00:11:14;101513.25;;;11.27;100.00
54882;BME280;40775;51.448;4.742;2023-04-29T00:13:42;101504.50;;;11.28;100.00
54882;BME280;40775;51.448;4.742;2023-04-29T00:16:09;101507.22;;;11.31;100.00
54882;BME280;40775;51.448;4.742;2023-04-29T00:18:37;101510.75;;;11.32;100.00
54882;BME280;40775;51.448;4.742;2023-04-29T00:21:04;101506.25;;;11.28;100.00
54882;BME280;40775;51.448;4.742;2023-04-29T00:23:34;101509.53;;;11.21;100.00
54882;BME280;40775;51.448;4.742;2023-04-29T00:26:02;101508.69;;;11.22;100.00
54882;BME280;40775;51.448;4.742;2023-04-29T00:28:29;101509.41;;;11.16;100.00
54882;BME280;40775;51.448;4.742;2023-04-29T00:30:56;101512.88;;;11.15;100.00
54882;BME280;40775;51.448;4.742;2023-04-29T00:33:23;101516.06;;;11.03;100.00
54882;BME280;40775;51.448;4.742;2023-04-29T00:35:51;101518.13;;;11.15;100.00
54882;BME280;40775;51.448;4.742;2023-04-29T00:38:18;101529.50;;;11.14;100.00
54882;BME280;40775;51.448;4.742;2023-04-29T00:40:45;101528.66;;;11.15;100.00
54882;BME280;40775;51.448;4.742;2023-04-29T00:43:12;101532.03;;;11.11;100.00
54882;BME280;40775;51.448;4.742;2023-04-29T00:45:39;101526.09;;;11.18;100.00
54882;BME280;40775;51.448;4.742;2023-04-29T00:48:06;101522.59;;;11.18;100.00
54882;BME280;40775;51.448;4.742;2023-04-29T00:50:34;101531.16;;;11.10;100.00
54882;BME280;40775;51.448;4.742;2023-04-29T00:53:02;101528.56;;;11.12;100.00
54882;BME280;40775;51.448;4.742;2023-04-29T00:55:31;101527.59;;;11.08;100.00
54882;BME280;40775;51.448;4.742;2023-04-29T00:57:58;101528.56;;;11.12;100.00
54882;BME280;40775;51.448;4.742;2023-04-29T01:00:26;101530.22;;;11.08;100.00
54882;BME280;40775;51.448;4.742;2023-04-29T01:02:53;101539.06;;;11.12;100.00
54882;BME280;40775;51.448;4.742;2023-04-29T01:05:23;101543.09;;;10.99;100.00
54882;BME280;40775;51.448;4.742;2023-04-29T01:10:48;101543.91;;;10.97;100.00
54882;BME280;40775;51.448;4.742;2023-04-29T01:13:36;101536.34;;;11.09;100.00
54882;BME280;40775;51.448;4.742;2023-04-29T01:16:12;101537.06;;;11.03;100.00
54882;BME280;40775;51.448;4.742;2023-04-29T01:18:53;101541.81;;;10.87;100.00
54882;BME280;40775;51.448;4.742;2023-04-29T01:21:20;101548.00;;;10.89;100.00
54882;BME280;40775;51.448;4.742;2023-04-29T01:23:48;101545.00;;;11.05;100.00
54882;BME280;40775;51.448;4.742;2023-04-29T01:26:22;101544.91;;;11.02;100.00
54882;BME280;40775;51.448;4.742;2023-04-29T01:29:02;101543.94;;;10.98;100.00
54882;BME280;40775;51.448;4.742;2023-04-29T01:32:04;101539.84;;;11.08;100.00
54882;BME280;40775;51.448;4.742;2023-04-29T01:35:15;101548.44;;;11.02;100.00
54882;BME280;40775;51.448;4.742;2023-04-29T01:37:51;101550.22;;;11.03;100.00
54882;BME280;40775;51.448;4.742;2023-04-29T01:43:01;101555.97;;;10.92;100.00
54882;BME280;40775;51.448;4.742;2023-04-29T01:45:31;101555.19;;;10.94;100.00
54882;BME280;40775;51.448;4.742;2023-04-29T01:48:00;101555.28;;;10.97;100.00
54882;BME280;40775;51.448;4.742;2023-04-29T01:50:28;101552.66;;;10.97;100.00
54882;BME280;40775;51.448;4.742;2023-04-29T01:52:56;101557.16;;;11.01;100.00
54882;BME280;40775;51.448;4.742;2023-04-29T01:55:23;101555.88;;;10.89;100.00
54882;BME280;40775;51.448;4.742;2023-04-29T01:57:50;101572.00;;;10.99;100.00
54882;BME280;40775;51.448;4.742;2023-04-29T02:00:17;101563.91;;;10.93;100.00
54882;BME280;40775;51.448;4.742;2023-04-29T02:02:44;101563.31;;;11.02;100.00
54882;BME280;40775;51.448;4.742;2023-04-29T02:05:12;101563.13;;;10.96;100.00
54882;BME280;40775;51.448;4.742;2023-04-29T02:07:39;101575.44;;;10.97;100.00
54882;BME280;40775;51.448;4.742;2023-04-29T02:10:08;101571.16;;;11.00;100.00
54882;BME280;40775;51.448;4.742;2023-04-29T02:12:35;101578.69;;;10.90;100.00
54882;BME280;40775;51.448;4.742;2023-04-29T02:15:02;101575.50;;;11.00;100.00
54882;BME280;40775;51.448;4.742;2023-04-29T02:17:29;101573.03;;;11.04;100.00
54882;BME280;40775;51.448;4.742;2023-04-29T02:19:56;101579.66;;;10.93;100.00
54882;BME280;40775;51.448;4.742;2023-04-29T02:22:23;101588.47;;;10.95;100.00
54882;BME280;40775;51.448;4.742;2023-04-29T02:24:50;101590.28;;;10.96;100.00
54882;BME280;40775;51.448;4.742;2023-04-29T02:27:17;101579.06;;;11.02;100.00
54882;BME280;40775;51.448;4.742;2023-04-29T02:29:44;101585.09;;;10.98;100.00
54882;BME280;40775;51.448;4.742;2023-04-29T02:32:11;101593.59;;;10.91;100.00
54882;BME280;40775;51.448;4.742;2023-04-29T02:34:41;101583.03;;;10.89;100.00
54882;BME280;40775;51.448;4.742;2023-04-29T02:37:08;101594.53;;;10.93;100.00
54882;BME280;40775;51.448;4.742;2023-04-29T02:39:35;101600.44;;;10.86;100.00
54882;BME280;40775;51.448;4.742;2023-04-29T02:42:02;101600.63;;;10.92;100.00
54882;BME280;40775;51.448;4.742;2023-04-29T02:44:29;101601.38;;;10.88;100.00
54882;BME280;40775;51.448;4.742;2023-04-29T02:46:58;101607.50;;;10.87;100.00
54882;BME280;40775;51.448;4.742;2023-04-29T02:49:25;101611.94;;;10.89;100.00
54882;BME280;40775;51.448;4.742;2023-04-29T02:51:53;101609.28;;;10.88;100.00
54882;BME280;40775;51.448;4.742;2023-04-29T02:54:20;101609.31;;;10.89;100.00
54882;BME280;40775;51.448;4.742;2023-04-29T02:56:47;101618.00;;;10.87;100.00
54882;BME280;40775;51.448;4.742;2023-04-29T02:59:14;101615.22;;;10.82;100.00
54882;BME280;40775;51.448;4.742;2023-04-29T03:01:41;101620.34;;;10.77;100.00
54882;BME280;40775;51.448;4.742;2023-04-29T03:04:09;101627.75;;;10.91;100.00
54882;BME280;40775;51.448;4.742;2023-04-29T03:06:36;101630.00;;;10.78;100.00
54882;BME280;40775;51.448;4.742;2023-04-29T03:09:04;101630.31;;;10.89;100.00
54882;BME280;40775;51.448;4.742;2023-04-29T03:11:31;101637.97;;;10.81;100.00
54882;BME280;40775;51.448;4.742;2023-04-29T03:13:58;101631.31;;;10.93;100.00
54882;BME280;40775;51.448;4.742;2023-04-29T03:16:25;101628.41;;;10.83;100.00
54882;BME280;40775;51.448;4.742;2023-04-29T03:18:54;101637.59;;;10.69;100.00
54882;BME280;40775;51.448;4.742;2023-04-29T03:21:21;101636.09;;;10.77;100.00
54882;BME280;40775;51.448;4.742;2023-04-29T03:23:48;101638.91;;;10.83;100.00
54882;BME280;40775;51.448;4.742;2023-04-29T03:26:16;101638.06;;;10.84;100.00
54882;BME280;40775;51.448;4.742;2023-04-29T03:28:43;101643.84;;;10.73;100.00
54882;BME280;40775;51.448;4.742;2023-04-29T03:31:10;101646.59;;;10.77;100.00
54882;BME280;40775;51.448;4.742;2023-04-29T03:33:38;101647.59;;;10.81;100.00
54882;BME280;40775;51.448;4.742;2023-04-29T03:36:05;101643.94;;;10.76;100.00
54882;BME280;40775;51.448;4.742;2023-04-29T03:38:34;101627.50;;;10.83;100.00
54882;BME280;40775;51.448;4.742;2023-04-29T03:41:01;101640.56;;;10.80;100.00
54882;BME280;40775;51.448;4.742;2023-04-29T03:43:29;101641.44;;;10.80;100.00
54882;BME280;40775;51.448;4.742;2023-04-29T03:45:56;101648.44;;;10.80;100.00
54882;BME280;40775;51.448;4.742;2023-04-29T03:48:23;101646.69;;;10.80;100.00
54882;BME280;40775;51.448;4.742;2023-04-29T03:50:50;101641.31;;;10.76;100.00
54882;BME280;40775;51.448;4.742;2023-04-29T03:53:17;101646.31;;;10.68;100.00
54882;BME280;40775;51.448;4.742;2023-04-29T03:55:49;101658.78;;;10.75;100.00
54882;BME280;40775;51.448;4.742;2023-04-29T03:58:19;101651.94;;;10.80;100.00
54882;BME280;40775;51.448;4.742;2023-04-29T04:00:46;101648.19;;;10.72;100.00
54882;BME280;40775;51.448;4.742;2023-04-29T04:03:13;101660.59;;;10.76;100.00
54882;BME280;40775;51.448;4.742;2023-04-29T04:05:40;101656.06;;;10.72;100.00
54882;BME280;40775;51.448;4.742;2023-04-29T04:08:08;101662.31;;;10.76;100.00
54882;BME280;40775;51.448;4.742;2023-04-29T04:10:35;101660.47;;;10.73;100.00
54882;BME280;40775;51.448;4.742;2023-04-29T04:13:02;101665.63;;;10.70;100.00
54882;BME280;40775;51.448;4.742;2023-04-29T04:15:29;101662.25;;;10.74;100.00
54882;BME280;40775;51.448;4.742;2023-04-29T04:17:56;101665.63;;;10.70;100.00
54882;BME280;40775;51.448;4.742;2023-04-29T04:20:24;101666.72;;;10.77;100.00
54882;BME280;40775;51.448;4.742;2023-04-29T04:22:51;101673.56;;;10.72;100.00
54882;BME280;40775;51.448;4.742;2023-04-29T04:25:20;101675.25;;;10.70;100.00
54882;BME280;40775;51.448;4.742;2023-04-29T04:27:47;101681.44;;;10.72;100.00
54882;BME280;40775;51.448;4.742;2023-04-29T04:30:16;101694.56;;;10.72;100.00
54882;BME280;40775;51.448;4.742;2023-04-29T04:32:53;101683.09;;;10.68;100.00
54882;BME280;40775;51.448;4.742;2023-04-29T04:35:20;101692.84;;;10.72;100.00
54882;BME280;40775;51.448;4.742;2023-04-29T04:37:47;101689.38;;;10.73;100.00
54882;BME280;40775;51.448;4.742;2023-04-29T04:40:15;101695.38;;;10.69;100.00
54882;BME280;40775;51.448;4.742;2023-04-29T04:42:46;101698.03;;;10.71;100.00
54882;BME280;40775;51.448;4.742;2023-04-29T04:45:13;101703.25;;;10.69;100.00
54882;BME280;40775;51.448;4.742;2023-04-29T04:47:40;101701.91;;;10.82;100.00
54882;BME280;40775;51.448;4.742;2023-04-29T04:50:08;101711.22;;;10.72;100.00
54882;BME280;40775;51.448;4.742;2023-04-29T04:52:35;101712.25;;;10.77;100.00
54882;BME280;40775;51.448;4.742;2023-04-29T04:55:03;101719.75;;;10.67;100.00
54882;BME280;40775;51.448;4.742;2023-04-29T04:57:30;101719.16;;;10.74;100.00
54882;BME280;40775;51.448;4.742;2023-04-29T04:59:57;101731.44;;;10.75;100.00
54882;BME280;40775;51.448;4.742;2023-04-29T05:02:24;101727.03;;;10.74;100.00
54882;BME280;40775;51.448;4.742;2023-04-29T05:04:53;101741.06;;;10.74;100.00
54882;BME280;40775;51.448;4.742;2023-04-29T05:07:20;101737.59;;;10.75;100.00
54882;BME280;40775;51.448;4.742;2023-04-29T05:09:47;101740.25;;;10.77;100.00
54882;BME280;40775;51.448;4.742;2023-04-29T05:12:14;101742.84;;;10.75;100.00
54882;BME280;40775;51.448;4.742;2023-04-29T05:14:42;101743.69;;;10.74;100.00
54882;BME280;40775;51.448;4.742;2023-04-29T05:17:09;101749.88;;;10.76;100.00
54882;BME280;40775;51.448;4.742;2023-04-29T05:19:37;101742.56;;;10.68;100.00
54882;BME280;40775;51.448;4.742;2023-04-29T05:22:04;101745.38;;;10.72;100.00
54882;BME280;40775;51.448;4.742;2023-04-29T05:24:30;101749.03;;;10.77;100.00
54882;BME280;40775;51.448;4.742;2023-04-29T05:26:58;101752.56;;;10.78;100.00
54882;BME280;40775;51.448;4.742;2023-04-29T05:29:25;101754.25;;;10.76;100.00
54882;BME280;40775;51.448;4.742;2023-04-29T05:31:53;101754.34;;;10.79;100.00
54882;BME280;40775;51.448;4.742;2023-04-29T05:34:20;101751.66;;;10.77;100.00
54882;BME280;40775;51.448;4.742;2023-04-29T05:36:47;101758.81;;;10.81;100.00
54882;BME280;40775;51.448;4.742;2023-04-29T05:39:14;101757.84;;;10.79;100.00
54882;BME280;40775;51.448;4.742;2023-04-29T05:41:41;101756.13;;;10.80;100.00
54882;BME280;40775;51.448;4.742;2023-04-29T05:44:08;101767.53;;;10.80;100.00
54882;BME280;40775;51.448;4.742;2023-04-29T05:46:35;101770.25;;;10.83;100.00
54882;BME280;40775;51.448;4.742;2023-04-29T05:49:02;101765.84;;;10.82;100.00
54882;BME280;40775;51.448;4.742;2023-04-29T05:51:29;101771.13;;;10.84;100.00
54882;BME280;40775;51.448;4.742;2023-04-29T05:53:57;101768.50;;;10.84;100.00
54882;BME280;40775;51.448;4.742;2023-04-29T05:56:25;101774.66;;;10.84;100.00
54882;BME280;40775;51.448;4.742;2023-04-29T05:58:53;101774.63;;;10.83;100.00
54882;BME280;40775;51.448;4.742;2023-04-29T06:01:20;101782.59;;;10.86;100.00
54882;BME280;40775;51.448;4.742;2023-04-29T06:03:47;101793.25;;;10.91;100.00
54882;BME280;40775;51.448;4.742;2023-04-29T06:06:14;101795.78;;;10.88;100.00
54882;BME280;40775;51.448;4.742;2023-04-29T06:08:42;101790.63;;;10.91;100.00
54882;BME280;40775;51.448;4.742;2023-04-29T06:11:09;101789.84;;;10.93;100.00
54882;BME280;40775;51.448;4.742;2023-04-29T06:13:36;101801.22;;;10.94;100.00
54882;BME280;40775;51.448;4.742;2023-04-29T06:16:03;101802.22;;;10.96;100.00
54882;BME280;40775;51.448;4.742;2023-04-29T06:18:31;101800.34;;;10.93;100.00
54882;BME280;40775;51.448;4.742;2023-04-29T06:20:58;101811.13;;;11.01;100.00
54882;BME280;40775;51.448;4.742;2023-04-29T06:23:25;101801.41;;;10.98;100.00
54882;BME280;40775;51.448;4.742;2023-04-29T06:25:52;101815.44;;;10.99;100.00
54882;BME280;40775;51.448;4.742;2023-04-29T06:28:19;101816.25;;;10.96;100.00
54882;BME280;40775;51.448;4.742;2023-04-29T06:30:46;101825.38;;;11.07;100.00
54882;BME280;40775;51.448;4.742;2023-04-29T06:33:13;101827.91;;;11.04;100.00
54882;BME280;40775;51.448;4.742;2023-04-29T06:35:40;101832.34;;;11.07;100.00
54882;BME280;40775;51.448;4.742;2023-04-29T06:38:07;101842.91;;;11.08;100.00
54882;BME280;40775;51.448;4.742;2023-04-29T06:40:34;101847.28;;;11.08;100.00
54882;BME280;40775;51.448;4.742;2023-04-29T06:43:02;101843.13;;;11.14;100.00
54882;BME280;40775;51.448;4.742;2023-04-29T06:45:30;101846.59;;;11.13;100.00
54882;BME280;40775;51.448;4.742;2023-04-29T06:47:57;101850.00;;;11.11;100.00
54882;BME280;40775;51.448;4.742;2023-04-29T06:50:24;101850.94;;;11.13;100.00
54882;BME280;40775;51.448;4.742;2023-04-29T06:52:52;101859.00;;;11.18;100.00
54882;BME280;40775;51.448;4.742;2023-04-29T06:55:19;101859.78;;;11.15;100.00
54882;BME280;40775;51.448;4.742;2023-04-29T06:57:46;101849.38;;;11.18;100.00
54882;BME280;40775;51.448;4.742;2023-04-29T07:00:14;101860.97;;;11.23;100.00
54882;BME280;40775;51.448;4.742;2023-04-29T07:02:41;101860.03;;;11.23;100.00
54882;BME280;40775;51.448;4.742;2023-04-29T07:05:09;101859.94;;;11.20;100.00
54882;BME280;40775;51.448;4.742;2023-04-29T07:07:36;101863.41;;;11.19;100.00
54882;BME280;40775;51.448;4.742;2023-04-29T07:10:04;101858.47;;;11.28;100.00
54882;BME280;40775;51.448;4.742;2023-04-29T07:12:31;101875.25;;;11.31;100.00
54882;BME280;40775;51.448;4.742;2023-04-29T07:14:58;101883.19;;;11.33;100.00
54882;BME280;40775;51.448;4.742;2023-04-29T07:17:28;101884.91;;;11.32;100.00
54882;BME280;40775;51.448;4.742;2023-04-29T07:19:57;101887.69;;;11.37;100.00
54882;BME280;40775;51.448;4.742;2023-04-29T07:22:24;101887.09;;;11.45;100.00
54882;BME280;40775;51.448;4.742;2023-04-29T07:24:54;101889.00;;;11.50;100.00
54882;BME280;40775;51.448;4.742;2023-04-29T07:27:22;101899.50;;;11.50;100.00
54882;BME280;40775;51.448;4.742;2023-04-29T07:29:50;101898.75;;;11.52;100.00
54882;BME280;40775;51.448;4.742;2023-04-29T07:32:17;101907.72;;;11.59;100.00
54882;BME280;40775;51.448;4.742;2023-04-29T07:34:44;101900.78;;;11.61;100.00
54882;BME280;40775;51.448;4.742;2023-04-29T07:37:11;101899.78;;;11.57;100.00
54882;BME280;40775;51.448;4.742;2023-04-29T07:39:38;101901.84;;;11.67;100.00
54882;BME280;40775;51.448;4.742;2023-04-29T07:42:05;101912.19;;;11.61;100.00
54882;BME280;40775;51.448;4.742;2023-04-29T07:44:32;101914.22;;;11.70;100.00
54882;BME280;40775;51.448;4.742;2023-04-29T07:46:59;101908.06;;;11.69;100.00
54882;BME280;40775;51.448;4.742;2023-04-29T07:49:26;101908.25;;;11.75;100.00
54882;BME280;40775;51.448;4.742;2023-04-29T07:51:53;101905.00;;;11.81;100.00
54882;BME280;40775;51.448;4.742;2023-04-29T07:54:20;101899.97;;;11.89;100.00
54882;BME280;40775;51.448;4.742;2023-04-29T07:56:48;101893.91;;;11.91;100.00
54882;BME280;40775;51.448;4.742;2023-04-29T07:59:15;101898.47;;;11.97;100.00
54882;BME280;40775;51.448;4.742;2023-04-29T08:01:42;101910.63;;;11.93;100.00
54882;BME280;40775;51.448;4.742;2023-04-29T08:04:09;101909.34;;;12.07;100.00
54882;BME280;40775;51.448;4.742;2023-04-29T08:06:37;101910.56;;;12.19;100.00
54882;BME280;40775;51.448;4.742;2023-04-29T08:09:04;101905.38;;;12.22;100.00
54882;BME280;40775;51.448;4.742;2023-04-29T08:11:31;101910.88;;;12.29;100.00
54882;BME280;40775;51.448;4.742;2023-04-29T08:13:58;101901.28;;;12.31;100.00
54882;BME280;40775;51.448;4.742;2023-04-29T08:16:25;101895.38;;;12.38;100.00
54882;BME280;40775;51.448;4.742;2023-04-29T08:18:53;101907.56;;;12.35;100.00
54882;BME280;40775;51.448;4.742;2023-04-29T08:21:20;101908.06;;;12.53;100.00
54882;BME280;40775;51.448;4.742;2023-04-29T08:23:47;101904.69;;;12.57;100.00
54882;BME280;40775;51.448;4.742;2023-04-29T08:26:16;101913.69;;;12.64;100.00
54882;BME280;40775;51.448;4.742;2023-04-29T08:28:43;101913.00;;;12.71;100.00
54882;BME280;40775;51.448;4.742;2023-04-29T08:31:20;101914.69;;;12.69;100.00
54882;BME280;40775;51.448;4.742;2023-04-29T08:33:47;101916.28;;;12.94;100.00
54882;BME280;40775;51.448;4.742;2023-04-29T08:36:15;101909.03;;;12.87;100.00
54882;BME280;40775;51.448;4.742;2023-04-29T08:38:42;101913.91;;;13.03;100.00
54882;BME280;40775;51.448;4.742;2023-04-29T08:41:09;101914.91;;;13.08;100.00
54882;BME280;40775;51.448;4.742;2023-04-29T08:43:36;101917.06;;;13.21;100.00
54882;BME280;40775;51.448;4.742;2023-04-29T08:46:03;101916.34;;;13.27;100.00
54882;BME280;40775;51.448;4.742;2023-04-29T08:48:31;101913.97;;;13.38;100.00
54882;BME280;40775;51.448;4.742;2023-04-29T08:50:58;101914.13;;;13.42;100.00
54882;BME280;40775;51.448;4.742;2023-04-29T08:53:27;101916.78;;;13.44;100.00
54882;BME280;40775;51.448;4.742;2023-04-29T08:55:58;101917.16;;;13.59;100.00
54882;BME280;40775;51.448;4.742;2023-04-29T08:58:27;101919.00;;;13.63;100.00
54882;BME280;40775;51.448;4.742;2023-04-29T09:00:55;101916.16;;;13.54;100.00
54882;BME280;40775;51.448;4.742;2023-04-29T09:06:27;101912.28;;;13.74;100.00
54882;BME280;40775;51.448;4.742;2023-04-29T09:08:54;101924.69;;;13.78;100.00
54882;BME280;40775;51.448;4.742;2023-04-29T09:11:22;101917.91;;;13.89;100.00
54882;BME280;40775;51.448;4.742;2023-04-29T09:13:49;101916.97;;;13.87;100.00
54882;BME280;40775;51.448;4.742;2023-04-29T09:16:16;101936.31;;;13.86;100.00
54882;BME280;40775;51.448;4.742;2023-04-29T09:18:50;101931.06;;;13.88;100.00
54882;BME280;40775;51.448;4.742;2023-04-29T09:21:23;101945.88;;;13.81;100.00
54882;BME280;40775;51.448;4.742;2023-04-29T09:23:58;101944.97;;;13.81;100.00
54882;BME280;40775;51.448;4.742;2023-04-29T09:26:26;101936.00;;;14.10;100.00
54882;BME280;40775;51.448;4.742;2023-04-29T09:29:12;101930.75;;;14.12;100.00
54882;BME280;40775;51.448;4.742;2023-04-29T09:31:45;101938.03;;;14.22;100.00
54882;BME280;40775;51.448;4.742;2023-04-29T09:34:13;101937.41;;;14.32;100.00
54882;BME280;40775;51.448;4.742;2023-04-29T09:36:49;101926.53;;;14.20;100.00
54882;BME280;40775;51.448;4.742;2023-04-29T09:39:19;101941.88;;;14.36;100.00
54882;BME280;40775;51.448;4.742;2023-04-29T09:44:26;101943.97;;;14.49;100.00
54882;BME280;40775;51.448;4.742;2023-04-29T09:47:07;101946.38;;;14.40;100.00
54882;BME280;40775;51.448;4.742;2023-04-29T09:52:06;101937.25;;;14.25;100.00
54882;BME280;40775;51.448;4.742;2023-04-29T09:54:36;101947.81;;;14.64;100.00
54882;BME280;40775;51.448;4.742;2023-04-29T09:57:06;101951.28;;;14.61;100.00
54882;BME280;40775;51.448;4.742;2023-04-29T09:59:36;101939.88;;;14.64;100.00
54882;BME280;40775;51.448;4.742;2023-04-29T10:02:13;101946.25;;;14.73;100.00
54882;BME280;40775;51.448;4.742;2023-04-29T10:04:43;101949.13;;;14.84;100.00
54882;BME280;40775;51.448;4.742;2023-04-29T10:07:16;101944.84;;;14.91;100.00
54882;BME280;40775;51.448;4.742;2023-04-29T10:09:45;101944.34;;;15.08;100.00
54882;BME280;40775;51.448;4.742;2023-04-29T10:12:18;101941.69;;;15.08;100.00
54882;BME280;40775;51.448;4.742;2023-04-29T10:17:46;101944.44;;;15.14;100.00
54882;BME280;40775;51.448;4.742;2023-04-29T10:20:22;101945.28;;;15.12;100.00
54882;BME280;40775;51.448;4.742;2023-04-29T10:22:52;101943.97;;;15.35;100.00
54882;BME280;40775;51.448;4.742;2023-04-29T10:25:22;101950.19;;;15.39;100.00
54882;BME280;40775;51.448;4.742;2023-04-29T10:27:50;101949.94;;;15.25;100.00
54882;BME280;40775;51.448;4.742;2023-04-29T10:30:21;101950.19;;;15.39;100.00
54882;BME280;40775;51.448;4.742;2023-04-29T10:32:50;101946.41;;;15.71;100.00
54882;BME280;40775;51.448;4.742;2023-04-29T10:35:20;101937.63;;;15.75;100.00
54882;BME280;40775;51.448;4.742;2023-04-29T10:37:53;101948.34;;;15.83;100.00
54882;BME280;40775;51.448;4.742;2023-04-29T10:40:43;101948.72;;;15.56;100.00
54882;BME280;40775;51.448;4.742;2023-04-29T10:43:15;101955.84;;;15.59;100.00
54882;BME280;40775;51.448;4.742;2023-04-29T10:45:42;101950.97;;;15.83;100.00
54882;BME280;40775;51.448;4.742;2023-04-29T10:48:11;101956.25;;;15.82;100.00
54882;BME280;40775;51.448;4.742;2023-04-29T10:53:11;101958.53;;;15.60;100.00
54882;BME280;40775;51.448;4.742;2023-04-29T10:55:38;101957.78;;;15.67;100.00
54882;BME280;40775;51.448;4.742;2023-04-29T10:58:58;101960.19;;;16.05;100.00
54882;BME280;40775;51.448;4.742;2023-04-29T11:01:26;101956.63;;;16.03;100.00
54882;BME280;40775;51.448;4.742;2023-04-29T11:04:05;101954.94;;;16.10;100.00
54882;BME280;40775;51.448;4.742;2023-04-29T11:09:34;101959.63;;;16.27;100.00
54882;BME280;40775;51.448;4.742;2023-04-29T11:12:04;101948.09;;;16.24;100.00
54882;BME280;40775;51.448;4.742;2023-04-29T11:17:12;101950.97;;;16.41;100.00
54882;BME280;40775;51.448;4.742;2023-04-29T11:19:49;101949.38;;;16.52;100.00
54882;BME280;40775;51.448;4.742;2023-04-29T11:27:34;101954.50;;;16.39;100.00
54882;BME280;40775;51.448;4.742;2023-04-29T11:30:04;101952.88;;;16.48;100.00
54882;BME280;40775;51.448;4.742;2023-04-29T11:32:38;101952.13;;;16.58;100.00
54882;BME280;40775;51.448;4.742;2023-04-29T11:37:41;101950.38;;;16.60;100.00
54882;BME280;40775;51.448;4.742;2023-04-29T11:40:09;101948.91;;;16.80;100.00
54882;BME280;40775;51.448;4.742;2023-04-29T11:42:43;101955.69;;;16.60;100.00
54882;BME280;40775;51.448;4.742;2023-04-29T11:45:11;101956.03;;;16.86;100.00
54882;BME280;40775;51.448;4.742;2023-04-29T11:47:43;101958.03;;;17.04;100.00
54882;BME280;40775;51.448;4.742;2023-04-29T11:50:12;101953.41;;;16.86;100.00
54882;BME280;40775;51.448;4.742;2023-04-29T11:52:42;101944.44;;;16.75;100.00
54882;BME280;40775;51.448;4.742;2023-04-29T11:55:11;101953.47;;;16.93;100.00
54882;BME280;40775;51.448;4.742;2023-04-29T11:57:38;101943.59;;;16.80;100.00
54882;BME280;40775;51.448;4.742;2023-04-29T12:00:10;101950.84;;;16.96;100.00
54882;BME280;40775;51.448;4.742;2023-04-29T12:02:43;101943.13;;;17.16;100.00
54882;BME280;40775;51.448;4.742;2023-04-29T12:05:11;101950.16;;;17.11;100.00
54882;BME280;40775;51.448;4.742;2023-04-29T12:07:39;101950.34;;;17.26;100.00
54882;BME280;40775;51.448;4.742;2023-04-29T12:10:09;101942.31;;;17.22;100.00
54882;BME280;40775;51.448;4.742;2023-04-29T12:12:40;101942.31;;;17.25;100.00
54882;BME280;40775;51.448;4.742;2023-04-29T12:15:10;101944.00;;;17.15;100.00
54882;BME280;40775;51.448;4.742;2023-04-29T12:17:39;101944.91;;;17.17;100.00
54882;BME280;40775;51.448;4.742;2023-04-29T12:20:07;101939.03;;;17.50;100.00
54882;BME280;40775;51.448;4.742;2023-04-29T12:22:38;101949.59;;;17.43;100.00
54882;BME280;40775;51.448;4.742;2023-04-29T12:25:07;101948.50;;;17.22;100.00
54882;BME280;40775;51.448;4.742;2023-04-29T12:27:35;101946.09;;;17.45;100.00
54882;BME280;40775;51.448;4.742;2023-04-29T12:30:09;101954.03;;;17.44;100.00
54882;BME280;40775;51.448;4.742;2023-04-29T12:32:37;101944.31;;;17.44;100.00
54882;BME280;40775;51.448;4.742;2023-04-29T12:35:04;101937.34;;;17.55;100.00
54882;BME280;40775;51.448;4.742;2023-04-29T12:37:32;101950.91;;;17.81;100.00
54882;BME280;40775;51.448;4.742;2023-04-29T12:40:01;101952.13;;;17.29;100.00
54882;BME280;40775;51.448;4.742;2023-04-29T12:42:32;101958.72;;;17.68;100.00
54882;BME280;40775;51.448;4.742;2023-04-29T12:45:00;101952.59;;;17.75;100.00
54882;BME280;40775;51.448;4.742;2023-04-29T12:47:32;101949.22;;;17.97;100.00
54882;BME280;40775;51.448;4.742;2023-04-29T12:50:05;101952.00;;;18.09;100.00
54882;BME280;40775;51.448;4.742;2023-04-29T12:52:33;101951.88;;;17.94;100.00
54882;BME280;40775;51.448;4.742;2023-04-29T12:55:02;101950.25;;;18.16;100.00
54882;BME280;40775;51.448;4.742;2023-04-29T12:57:30;101951.00;;;17.98;100.00
54882;BME280;40775;51.448;4.742;2023-04-29T12:59:58;101946.50;;;17.88;100.00
54882;BME280;40775;51.448;4.742;2023-04-29T13:02:25;101946.75;;;18.21;100.00
54882;BME280;40775;51.448;4.742;2023-04-29T13:04:52;101950.34;;;18.33;100.00
54882;BME280;40775;51.448;4.742;2023-04-29T13:07:20;101952.09;;;18.28;100.00
54882;BME280;40775;51.448;4.742;2023-04-29T13:09:47;101953.41;;;17.68;100.00
54882;BME280;40775;51.448;4.742;2023-04-29T13:12:14;101946.59;;;18.03;100.00
54882;BME280;40775;51.448;4.742;2023-04-29T13:14:42;101948.56;;;18.29;100.00
54882;BME280;40775;51.448;4.742;2023-04-29T13:17:09;101954.75;;;18.26;100.00
54882;BME280;40775;51.448;4.742;2023-04-29T13:19:37;101948.56;;;18.32;100.00
54882;BME280;40775;51.448;4.742;2023-04-29T13:22:17;101948.56;;;18.32;100.00